sensor_id;sensor_type;location;lat;lon;timestamp;P1;durP1;ratioP1;P2;durP2;ratioP2
61127;SDS011;47013;42.664;23.242;2023-12-28T00:01:30;0.15;;;0.15;;
61127;SDS011;47013;42.664;23.242;2023-12-28T00:03:56;0.10;;;0.10;;
61127;SDS011;47013;42.664;23.242;2023-12-28T00:06:21;2.05;;;0.47;;
61127;SDS011;47013;42.664;23.242;2023-12-28T00:08:47;0.15;;;0.15;;
61127;SDS011;47013;42.664;23.242;2023-12-28T00:11:13;0.10;;;0.10;;
61127;SDS011;47013;42.664;23.242;2023-12-28T00:13:39;0.20;;;0.20;;
61127;SDS011;47013;42.664;23.242;2023-12-28T00:16:04;0.10;;;0.10;;
61127;SDS011;47013;42.664;23.242;2023-12-28T00:18:30;0.40;;;0.40;;
61127;SDS011;47013;42.664;23.242;2023-12-28T00:20:55;0.10;;;0.10;;
61127;SDS011;47013;42.664;23.242;2023-12-28T00:23:21;0.63;;;0.43;;
61127;SDS011;47013;42.664;23.242;2023-12-28T00:25:46;0.10;;;0.10;;
61127;SDS011;47013;42.664;23.242;2023-12-28T00:28:12;0.32;;;0.30;;
61127;SDS011;47013;42.664;23.242;2023-12-28T00:30:37;0.60;;;0.55;;
61127;SDS011;47013;42.664;23.242;2023-12-28T00:33:03;0.22;;;0.22;;
61127;SDS011;47013;42.664;23.242;2023-12-28T00:35:28;0.70;;;0.55;;
61127;SDS011;47013;42.664;23.242;2023-12-28T00:37:54;1.13;;;0.40;;
61127;SDS011;47013;42.664;23.242;2023-12-28T00:40:19;0.10;;;0.10;;
61127;SDS011;47013;42.664;23.242;2023-12-28T00:42:46;0.73;;;0.47;;
61127;SDS011;47013;42.664;23.242;2023-12-28T00:45:12;0.10;;;0.10;;
61127;SDS011;47013;42.664;23.242;2023-12-28T00:47:37;0.65;;;0.63;;
61127;SDS011;47013;42.664;23.242;2023-12-28T00:50:03;0.10;;;0.10;;
61127;SDS011;47013;42.664;23.242;2023-12-28T00:52:28;0.13;;;0.13;;
61127;SDS011;47013;42.664;23.242;2023-12-28T00:54:54;0.22;;;0.22;;
61127;SDS011;47013;42.664;23.242;2023-12-28T00:57:19;0.20;;;0.20;;
61127;SDS011;47013;42.664;23.242;2023-12-28T00:59:44;0.52;;;0.40;;
61127;SDS011;47013;42.664;23.242;2023-12-28T01:02:10;0.10;;;0.10;;
61127;SDS011;47013;42.664;23.242;2023-12-28T01:04:35;0.25;;;0.20;;
61127;SDS011;47013;42.664;23.242;2023-12-28T01:07:00;0.30;;;0.30;;
61127;SDS011;47013;42.664;23.242;2023-12-28T01:09:27;0.73;;;0.65;;
61127;SDS011;47013;42.664;23.242;2023-12-28T01:11:53;0.30;;;0.30;;
61127;SDS011;47013;42.664;23.242;2023-12-28T01:14:19;0.98;;;0.47;;
61127;SDS011;47013;42.664;23.242;2023-12-28T01:16:44;0.13;;;0.13;;
61127;SDS011;47013;42.664;23.242;2023-12-28T01:19:10;0.50;;;0.50;;
61127;SDS011;47013;42.664;23.242;2023-12-28T01:21:35;0.10;;;0.10;;
61127;SDS011;47013;42.664;23.242;2023-12-28T01:24:00;0.13;;;0.13;;
61127;SDS011;47013;42.664;23.242;2023-12-28T01:26:26;0.30;;;0.30;;
61127;SDS011;47013;42.664;23.242;2023-12-28T01:28:51;0.10;;;0.10;;
61127;SDS011;47013;42.664;23.242;2023-12-28T01:31:17;0.25;;;0.25;;
61127;SDS011;47013;42.664;23.242;2023-12-28T01:33:42;2.63;;;1.27;;
61127;SDS011;47013;42.664;23.242;2023-12-28T01:36:17;0.55;;;0.43;;
61127;SDS011;47013;42.664;23.242;2023-12-28T01:38:43;0.20;;;0.20;;
61127;SDS011;47013;42.664;23.242;2023-12-28T01:41:10;0.15;;;0.15;;
61127;SDS011;47013;42.664;23.242;2023-12-28T01:43:37;0.20;;;0.20;;
61127;SDS011;47013;42.664;23.242;2023-12-28T01:46:03;0.10;;;0.10;;
61127;SDS011;47013;42.664;23.242;2023-12-28T01:48:30;0.10;;;0.10;;
61127;SDS011;47013;42.664;23.242;2023-12-28T01:50:55;0.35;;;0.35;;
61127;SDS011;47013;42.664;23.242;2023-12-28T01:53:21;0.10;;;0.10;;
61127;SDS011;47013;42.664;23.242;2023-12-28T01:55:47;0.70;;;0.65;;
61127;SDS011;47013;42.664;23.242;2023-12-28T01:58:13;0.20;;;0.20;;
61127;SDS011;47013;42.664;23.242;2023-12-28T02:00:39;0.10;;;0.10;;
61127;SDS011;47013;42.664;23.242;2023-12-28T02:03:06;1.20;;;0.57;;
61127;SDS011;47013;42.664;23.242;2023-12-28T02:05:32;0.20;;;0.20;;
61127;SDS011;47013;42.664;23.242;2023-12-28T02:07:58;0.20;;;0.20;;
61127;SDS011;47013;42.664;23.242;2023-12-28T02:10:24;0.43;;;0.43;;
61127;SDS011;47013;42.664;23.242;2023-12-28T02:12:49;0.65;;;0.40;;
61127;SDS011;47013;42.664;23.242;2023-12-28T02:15:18;0.15;;;0.15;;
61127;SDS011;47013;42.664;23.242;2023-12-28T02:17:47;0.10;;;0.10;;
61127;SDS011;47013;42.664;23.242;2023-12-28T02:20:18;0.10;;;0.10;;
61127;SDS011;47013;42.664;23.242;2023-12-28T02:22:45;0.10;;;0.10;;
61127;SDS011;47013;42.664;23.242;2023-12-28T02:25:11;0.10;;;0.10;;
61127;SDS011;47013;42.664;23.242;2023-12-28T02:27:41;0.10;;;0.10;;
61127;SDS011;47013;42.664;23.242;2023-12-28T02:30:09;0.10;;;0.10;;
61127;SDS011;47013;42.664;23.242;2023-12-28T02:32:49;0.47;;;0.47;;
61127;SDS011;47013;42.664;23.242;2023-12-28T02:35:23;0.20;;;0.20;;
61127;SDS011;47013;42.664;23.242;2023-12-28T02:37:51;0.10;;;0.10;;
61127;SDS011;47013;42.664;23.242;2023-12-28T02:40:18;0.10;;;0.10;;
61127;SDS011;47013;42.664;23.242;2023-12-28T02:42:44;0.10;;;0.10;;
61127;SDS011;47013;42.664;23.242;2023-12-28T02:45:10;0.43;;;0.40;;
61127;SDS011;47013;42.664;23.242;2023-12-28T02:47:36;0.50;;;0.50;;
61127;SDS011;47013;42.664;23.242;2023-12-28T02:50:01;0.30;;;0.30;;
61127;SDS011;47013;42.664;23.242;2023-12-28T02:52:26;0.10;;;0.10;;
61127;SDS011;47013;42.664;23.242;2023-12-28T02:54:52;0.10;;;0.10;;
61127;SDS011;47013;42.664;23.242;2023-12-28T02:57:17;0.28;;;0.28;;
61127;SDS011;47013;42.664;23.242;2023-12-28T02:59:46;0.45;;;0.45;;
61127;SDS011;47013;42.664;23.242;2023-12-28T03:02:12;0.10;;;0.10;;
61127;SDS011;47013;42.664;23.242;2023-12-28T03:04:37;0.10;;;0.10;;
61127;SDS011;47013;42.664;23.242;2023-12-28T03:07:03;0.20;;;0.20;;
61127;SDS011;47013;42.664;23.242;2023-12-28T03:09:30;0.17;;;0.17;;
61127;SDS011;47013;42.664;23.242;2023-12-28T03:11:55;0.13;;;0.13;;
61127;SDS011;47013;42.664;23.242;2023-12-28T03:14:20;0.10;;;0.10;;
61127;SDS011;47013;42.664;23.242;2023-12-28T03:16:46;0.20;;;0.20;;
61127;SDS011;47013;42.664;23.242;2023-12-28T03:19:11;0.20;;;0.20;;
61127;SDS011;47013;42.664;23.242;2023-12-28T03:21:40;0.20;;;0.20;;
61127;SDS011;47013;42.664;23.242;2023-12-28T03:24:06;0.10;;;0.10;;
61127;SDS011;47013;42.664;23.242;2023-12-28T03:26:31;0.15;;;0.15;;
61127;SDS011;47013;42.664;23.242;2023-12-28T03:28:56;0.28;;;0.28;;
61127;SDS011;47013;42.664;23.242;2023-12-28T03:31:22;0.10;;;0.10;;
61127;SDS011;47013;42.664;23.242;2023-12-28T03:33:48;0.22;;;0.22;;
61127;SDS011;47013;42.664;23.242;2023-12-28T03:36:20;0.35;;;0.35;;
61127;SDS011;47013;42.664;23.242;2023-12-28T03:38:45;0.17;;;0.17;;
61127;SDS011;47013;42.664;23.242;2023-12-28T03:41:18;0.20;;;0.20;;
61127;SDS011;47013;42.664;23.242;2023-12-28T03:43:44;0.32;;;0.32;;
61127;SDS011;47013;42.664;23.242;2023-12-28T03:46:09;0.20;;;0.20;;
61127;SDS011;47013;42.664;23.242;2023-12-28T03:48:36;0.28;;;0.28;;
61127;SDS011;47013;42.664;23.242;2023-12-28T03:51:01;0.35;;;0.35;;
61127;SDS011;47013;42.664;23.242;2023-12-28T03:53:27;0.52;;;0.40;;
61127;SDS011;47013;42.664;23.242;2023-12-28T03:55:53;0.10;;;0.10;;
61127;SDS011;47013;42.664;23.242;2023-12-28T03:58:18;0.30;;;0.30;;
61127;SDS011;47013;42.664;23.242;2023-12-28T04:00:44;0.55;;;0.55;;
61127;SDS011;47013;42.664;23.242;2023-12-28T04:03:09;0.10;;;0.10;;
61127;SDS011;47013;42.664;23.242;2023-12-28T04:05:34;0.30;;;0.30;;
61127;SDS011;47013;42.664;23.242;2023-12-28T04:08:00;0.45;;;0.45;;
61127;SDS011;47013;42.664;23.242;2023-12-28T04:10:29;0.20;;;0.20;;
61127;SDS011;47013;42.664;23.242;2023-12-28T04:12:56;0.47;;;0.40;;
61127;SDS011;47013;42.664;23.242;2023-12-28T04:15:23;0.50;;;0.50;;
61127;SDS011;47013;42.664;23.242;2023-12-28T04:17:49;0.35;;;0.35;;
61127;SDS011;47013;42.664;23.242;2023-12-28T04:20:14;0.32;;;0.32;;
61127;SDS011;47013;42.664;23.242;2023-12-28T04:22:40;0.30;;;0.30;;
61127;SDS011;47013;42.664;23.242;2023-12-28T04:25:06;0.10;;;0.10;;
61127;SDS011;47013;42.664;23.242;2023-12-28T04:27:31;0.90;;;0.68;;
61127;SDS011;47013;42.664;23.242;2023-12-28T04:29:57;0.63;;;0.57;;
61127;SDS011;47013;42.664;23.242;2023-12-28T04:32:22;0.20;;;0.20;;
61127;SDS011;47013;42.664;23.242;2023-12-28T04:34:49;1.00;;;0.73;;
61127;SDS011;47013;42.664;23.242;2023-12-28T04:37:14;0.20;;;0.20;;
61127;SDS011;47013;42.664;23.242;2023-12-28T04:39:40;0.10;;;0.10;;
61127;SDS011;47013;42.664;23.242;2023-12-28T04:42:05;0.30;;;0.30;;
61127;SDS011;47013;42.664;23.242;2023-12-28T04:44:31;0.10;;;0.10;;
61127;SDS011;47013;42.664;23.242;2023-12-28T04:46:56;0.28;;;0.28;;
61127;SDS011;47013;42.664;23.242;2023-12-28T04:49:21;0.17;;;0.17;;
61127;SDS011;47013;42.664;23.242;2023-12-28T04:51:47;0.10;;;0.10;;
61127;SDS011;47013;42.664;23.242;2023-12-28T04:54:12;0.20;;;0.20;;
61127;SDS011;47013;42.664;23.242;2023-12-28T04:56:38;0.10;;;0.10;;
61127;SDS011;47013;42.664;23.242;2023-12-28T04:59:03;0.30;;;0.30;;
61127;SDS011;47013;42.664;23.242;2023-12-28T05:01:28;0.20;;;0.20;;
61127;SDS011;47013;42.664;23.242;2023-12-28T05:03:56;0.43;;;0.43;;
61127;SDS011;47013;42.664;23.242;2023-12-28T05:06:22;0.60;;;0.60;;
61127;SDS011;47013;42.664;23.242;2023-12-28T05:08:47;0.10;;;0.10;;
61127;SDS011;47013;42.664;23.242;2023-12-28T05:11:13;0.17;;;0.17;;
61127;SDS011;47013;42.664;23.242;2023-12-28T05:13:38;0.20;;;0.20;;
61127;SDS011;47013;42.664;23.242;2023-12-28T05:16:03;0.20;;;0.20;;
61127;SDS011;47013;42.664;23.242;2023-12-28T05:18:29;0.45;;;0.45;;
61127;SDS011;47013;42.664;23.242;2023-12-28T05:20:54;0.10;;;0.10;;
61127;SDS011;47013;42.664;23.242;2023-12-28T05:23:20;0.38;;;0.30;;
61127;SDS011;47013;42.664;23.242;2023-12-28T05:25:45;0.30;;;0.30;;
61127;SDS011;47013;42.664;23.242;2023-12-28T05:28:11;0.10;;;0.10;;
61127;SDS011;47013;42.664;23.242;2023-12-28T05:30:37;0.10;;;0.10;;
61127;SDS011;47013;42.664;23.242;2023-12-28T05:33:02;0.57;;;0.35;;
61127;SDS011;47013;42.664;23.242;2023-12-28T05:35:28;0.28;;;0.28;;
61127;SDS011;47013;42.664;23.242;2023-12-28T05:37:53;0.10;;;0.10;;
61127;SDS011;47013;42.664;23.242;2023-12-28T05:40:19;0.10;;;0.10;;
61127;SDS011;47013;42.664;23.242;2023-12-28T05:42:44;0.20;;;0.20;;
61127;SDS011;47013;42.664;23.242;2023-12-28T05:45:10;0.65;;;0.60;;
61127;SDS011;47013;42.664;23.242;2023-12-28T05:47:35;0.28;;;0.28;;
61127;SDS011;47013;42.664;23.242;2023-12-28T05:50:04;0.20;;;0.20;;
61127;SDS011;47013;42.664;23.242;2023-12-28T05:52:30;0.70;;;0.65;;
61127;SDS011;47013;42.664;23.242;2023-12-28T05:54:56;0.40;;;0.40;;
61127;SDS011;47013;42.664;23.242;2023-12-28T05:57:21;0.10;;;0.10;;
61127;SDS011;47013;42.664;23.242;2023-12-28T05:59:47;1.10;;;0.60;;
61127;SDS011;47013;42.664;23.242;2023-12-28T06:02:12;0.28;;;0.28;;
61127;SDS011;47013;42.664;23.242;2023-12-28T06:04:37;0.20;;;0.20;;
61127;SDS011;47013;42.664;23.242;2023-12-28T06:07:03;0.22;;;0.22;;
61127;SDS011;47013;42.664;23.242;2023-12-28T06:09:30;0.28;;;0.28;;
61127;SDS011;47013;42.664;23.242;2023-12-28T06:11:56;0.10;;;0.10;;
61127;SDS011;47013;42.664;23.242;2023-12-28T06:14:21;0.28;;;0.28;;
61127;SDS011;47013;42.664;23.242;2023-12-28T06:16:46;0.22;;;0.22;;
61127;SDS011;47013;42.664;23.242;2023-12-28T06:19:12;1.05;;;0.77;;
61127;SDS011;47013;42.664;23.242;2023-12-28T06:21:37;0.38;;;0.22;;
61127;SDS011;47013;42.664;23.242;2023-12-28T06:24:03;0.70;;;0.32;;
61127;SDS011;47013;42.664;23.242;2023-12-28T06:26:29;0.65;;;0.52;;
61127;SDS011;47013;42.664;23.242;2023-12-28T06:28:54;0.20;;;0.20;;
61127;SDS011;47013;42.664;23.242;2023-12-28T06:31:20;0.35;;;0.35;;
61127;SDS011;47013;42.664;23.242;2023-12-28T06:33:45;0.32;;;0.32;;
61127;SDS011;47013;42.664;23.242;2023-12-28T06:36:11;0.30;;;0.30;;
61127;SDS011;47013;42.664;23.242;2023-12-28T06:38:37;0.22;;;0.22;;
61127;SDS011;47013;42.664;23.242;2023-12-28T06:41:09;1.25;;;0.85;;
61127;SDS011;47013;42.664;23.242;2023-12-28T06:43:36;0.30;;;0.30;;
61127;SDS011;47013;42.664;23.242;2023-12-28T06:46:04;0.17;;;0.17;;
61127;SDS011;47013;42.664;23.242;2023-12-28T06:48:29;0.17;;;0.17;;
61127;SDS011;47013;42.664;23.242;2023-12-28T06:50:55;0.10;;;0.10;;
61127;SDS011;47013;42.664;23.242;2023-12-28T06:53:21;0.10;;;0.10;;
61127;SDS011;47013;42.664;23.242;2023-12-28T06:55:46;0.32;;;0.32;;
61127;SDS011;47013;42.664;23.242;2023-12-28T06:58:11;0.10;;;0.10;;
61127;SDS011;47013;42.664;23.242;2023-12-28T07:00:37;0.75;;;0.40;;
61127;SDS011;47013;42.664;23.242;2023-12-28T07:03:02;0.10;;;0.10;;
61127;SDS011;47013;42.664;23.242;2023-12-28T07:05:28;0.10;;;0.10;;
61127;SDS011;47013;42.664;23.242;2023-12-28T07:07:53;0.20;;;0.20;;
61127;SDS011;47013;42.664;23.242;2023-12-28T07:10:18;1.55;;;0.80;;
61127;SDS011;47013;42.664;23.242;2023-12-28T07:12:44;0.10;;;0.10;;
61127;SDS011;47013;42.664;23.242;2023-12-28T07:15:09;0.32;;;0.32;;
61127;SDS011;47013;42.664;23.242;2023-12-28T07:17:38;0.15;;;0.15;;
61127;SDS011;47013;42.664;23.242;2023-12-28T07:20:04;0.10;;;0.10;;
61127;SDS011;47013;42.664;23.242;2023-12-28T07:22:30;0.40;;;0.40;;
61127;SDS011;47013;42.664;23.242;2023-12-28T07:24:55;0.20;;;0.20;;
61127;SDS011;47013;42.664;23.242;2023-12-28T07:27:21;0.20;;;0.20;;
61127;SDS011;47013;42.664;23.242;2023-12-28T07:29:46;0.28;;;0.28;;
61127;SDS011;47013;42.664;23.242;2023-12-28T07:32:11;0.30;;;0.30;;
61127;SDS011;47013;42.664;23.242;2023-12-28T07:34:37;0.10;;;0.10;;
61127;SDS011;47013;42.664;23.242;2023-12-28T07:37:02;0.40;;;0.40;;
61127;SDS011;47013;42.664;23.242;2023-12-28T07:39:28;0.20;;;0.20;;
61127;SDS011;47013;42.664;23.242;2023-12-28T07:41:53;7.97;;;0.98;;
61127;SDS011;47013;42.664;23.242;2023-12-28T07:44:19;0.57;;;0.57;;
61127;SDS011;47013;42.664;23.242;2023-12-28T07:46:44;0.68;;;0.65;;
61127;SDS011;47013;42.664;23.242;2023-12-28T07:49:09;0.25;;;0.25;;
61127;SDS011;47013;42.664;23.242;2023-12-28T07:51:35;0.40;;;0.40;;
61127;SDS011;47013;42.664;23.242;2023-12-28T07:54:00;0.52;;;0.52;;
61127;SDS011;47013;42.664;23.242;2023-12-28T07:56:26;0.70;;;0.55;;
61127;SDS011;47013;42.664;23.242;2023-12-28T07:58:51;0.65;;;0.60;;
61127;SDS011;47013;42.664;23.242;2023-12-28T08:01:16;0.43;;;0.43;;
61127;SDS011;47013;42.664;23.242;2023-12-28T08:03:42;0.32;;;0.32;;
61127;SDS011;47013;42.664;23.242;2023-12-28T08:06:10;1.25;;;1.02;;
61127;SDS011;47013;42.664;23.242;2023-12-28T08:08:37;0.43;;;0.40;;
61127;SDS011;47013;42.664;23.242;2023-12-28T08:11:03;0.40;;;0.40;;
61127;SDS011;47013;42.664;23.242;2023-12-28T08:13:28;0.47;;;0.45;;
61127;SDS011;47013;42.664;23.242;2023-12-28T08:15:54;3.92;;;0.52;;
61127;SDS011;47013;42.664;23.242;2023-12-28T08:18:19;0.47;;;0.47;;
61127;SDS011;47013;42.664;23.242;2023-12-28T08:20:45;0.20;;;0.20;;
61127;SDS011;47013;42.664;23.242;2023-12-28T08:23:10;1.25;;;0.85;;
61127;SDS011;47013;42.664;23.242;2023-12-28T08:25:35;1.38;;;0.80;;
61127;SDS011;47013;42.664;23.242;2023-12-28T08:28:01;0.40;;;0.40;;
61127;SDS011;47013;42.664;23.242;2023-12-28T08:30:26;0.88;;;0.57;;
61127;SDS011;47013;42.664;23.242;2023-12-28T08:32:52;1.15;;;1.05;;
61127;SDS011;47013;42.664;23.242;2023-12-28T08:35:18;1.10;;;0.90;;
61127;SDS011;47013;42.664;23.242;2023-12-28T08:37:43;0.50;;;0.43;;
61127;SDS011;47013;42.664;23.242;2023-12-28T08:40:09;0.52;;;0.52;;
61127;SDS011;47013;42.664;23.242;2023-12-28T08:42:34;0.47;;;0.43;;
61127;SDS011;47013;42.664;23.242;2023-12-28T08:45:00;0.68;;;0.55;;
61127;SDS011;47013;42.664;23.242;2023-12-28T08:47:26;0.40;;;0.40;;
61127;SDS011;47013;42.664;23.242;2023-12-28T08:49:52;1.15;;;1.05;;
61127;SDS011;47013;42.664;23.242;2023-12-28T08:52:17;0.77;;;0.55;;
61127;SDS011;47013;42.664;23.242;2023-12-28T08:54:43;0.73;;;0.55;;
61127;SDS011;47013;42.664;23.242;2023-12-28T08:57:08;0.20;;;0.20;;
61127;SDS011;47013;42.664;23.242;2023-12-28T08:59:37;0.98;;;0.43;;
61127;SDS011;47013;42.664;23.242;2023-12-28T09:02:02;0.20;;;0.20;;
61127;SDS011;47013;42.664;23.242;2023-12-28T09:04:28;1.48;;;0.82;;
61127;SDS011;47013;42.664;23.242;2023-12-28T09:06:54;0.30;;;0.30;;
61127;SDS011;47013;42.664;23.242;2023-12-28T09:09:19;1.35;;;1.00;;
61127;SDS011;47013;42.664;23.242;2023-12-28T09:11:44;0.30;;;0.30;;
61127;SDS011;47013;42.664;23.242;2023-12-28T09:14:10;2.70;;;1.70;;
61127;SDS011;47013;42.664;23.242;2023-12-28T09:16:35;0.80;;;0.63;;
61127;SDS011;47013;42.664;23.242;2023-12-28T09:19:01;0.60;;;0.50;;
61127;SDS011;47013;42.664;23.242;2023-12-28T09:21:26;0.55;;;0.35;;
61127;SDS011;47013;42.664;23.242;2023-12-28T09:23:52;0.30;;;0.30;;
61127;SDS011;47013;42.664;23.242;2023-12-28T09:26:17;0.60;;;0.60;;
61127;SDS011;47013;42.664;23.242;2023-12-28T09:28:43;0.30;;;0.30;;
61127;SDS011;47013;42.664;23.242;2023-12-28T09:31:09;0.70;;;0.40;;
61127;SDS011;47013;42.664;23.242;2023-12-28T09:33:34;0.35;;;0.35;;
61127;SDS011;47013;42.664;23.242;2023-12-28T09:36:02;0.55;;;0.55;;
61127;SDS011;47013;42.664;23.242;2023-12-28T09:38:29;0.20;;;0.20;;
61127;SDS011;47013;42.664;23.242;2023-12-28T09:40:54;0.73;;;0.73;;
61127;SDS011;47013;42.664;23.242;2023-12-28T09:43:26;0.55;;;0.55;;
61127;SDS011;47013;42.664;23.242;2023-12-28T09:48:32;0.98;;;0.70;;
61127;SDS011;47013;42.664;23.242;2023-12-28T09:50:58;0.25;;;0.25;;
61127;SDS011;47013;42.664;23.242;2023-12-28T09:53:23;0.50;;;0.38;;
61127;SDS011;47013;42.664;23.242;2023-12-28T09:55:50;0.80;;;0.68;;
61127;SDS011;47013;42.664;23.242;2023-12-28T10:00:45;0.75;;;0.57;;
61127;SDS011;47013;42.664;23.242;2023-12-28T10:03:14;0.80;;;0.70;;
61127;SDS011;47013;42.664;23.242;2023-12-28T10:05:41;0.85;;;0.70;;
61127;SDS011;47013;42.664;23.242;2023-12-28T10:08:07;0.50;;;0.50;;
61127;SDS011;47013;42.664;23.242;2023-12-28T10:10:32;2.58;;;1.17;;
61127;SDS011;47013;42.664;23.242;2023-12-28T10:12:57;0.63;;;0.40;;
61127;SDS011;47013;42.664;23.242;2023-12-28T10:15:23;1.25;;;0.88;;
61127;SDS011;47013;42.664;23.242;2023-12-28T10:17:51;0.20;;;0.20;;
61127;SDS011;47013;42.664;23.242;2023-12-28T10:20:17;1.80;;;1.10;;
61127;SDS011;47013;42.664;23.242;2023-12-28T10:22:42;0.50;;;0.50;;
61127;SDS011;47013;42.664;23.242;2023-12-28T10:25:08;0.95;;;0.88;;
61127;SDS011;47013;42.664;23.242;2023-12-28T10:27:37;0.40;;;0.40;;
61127;SDS011;47013;42.664;23.242;2023-12-28T10:30:09;0.28;;;0.28;;
61127;SDS011;47013;42.664;23.242;2023-12-28T10:32:35;0.55;;;0.47;;
61127;SDS011;47013;42.664;23.242;2023-12-28T10:35:04;2.22;;;1.05;;
61127;SDS011;47013;42.664;23.242;2023-12-28T10:37:30;1.00;;;0.73;;
61127;SDS011;47013;42.664;23.242;2023-12-28T10:39:57;1.02;;;0.73;;
61127;SDS011;47013;42.664;23.242;2023-12-28T10:45:01;1.55;;;1.10;;
61127;SDS011;47013;42.664;23.242;2023-12-28T10:47:31;1.05;;;0.85;;
61127;SDS011;47013;42.664;23.242;2023-12-28T10:49:58;3.13;;;1.48;;
61127;SDS011;47013;42.664;23.242;2023-12-28T10:52:27;1.02;;;0.68;;
61127;SDS011;47013;42.664;23.242;2023-12-28T10:57:29;2.03;;;1.40;;
61127;SDS011;47013;42.664;23.242;2023-12-28T11:02:28;1.38;;;1.20;;
61127;SDS011;47013;42.664;23.242;2023-12-28T11:04:57;0.93;;;0.93;;
61127;SDS011;47013;42.664;23.242;2023-12-28T11:09:57;1.40;;;1.20;;
61127;SDS011;47013;42.664;23.242;2023-12-28T11:12:25;2.22;;;1.42;;
61127;SDS011;47013;42.664;23.242;2023-12-28T11:14:52;1.50;;;1.38;;
61127;SDS011;47013;42.664;23.242;2023-12-28T11:17:19;2.45;;;1.25;;
61127;SDS011;47013;42.664;23.242;2023-12-28T11:19:45;2.58;;;1.48;;
61127;SDS011;47013;42.664;23.242;2023-12-28T11:22:13;2.15;;;1.48;;
61127;SDS011;47013;42.664;23.242;2023-12-28T11:24:40;3.10;;;1.77;;
61127;SDS011;47013;42.664;23.242;2023-12-28T11:27:06;2.53;;;1.95;;
61127;SDS011;47013;42.664;23.242;2023-12-28T11:29:31;2.95;;;1.77;;
61127;SDS011;47013;42.664;23.242;2023-12-28T11:31:58;2.40;;;1.80;;
61127;SDS011;47013;42.664;23.242;2023-12-28T11:34:24;1.58;;;1.40;;
61127;SDS011;47013;42.664;23.242;2023-12-28T11:36:51;3.72;;;1.80;;
61127;SDS011;47013;42.664;23.242;2023-12-28T11:39:32;2.60;;;1.70;;
61127;SDS011;47013;42.664;23.242;2023-12-28T11:42:05;3.97;;;2.05;;
61127;SDS011;47013;42.664;23.242;2023-12-28T11:44:31;4.72;;;2.35;;
61127;SDS011;47013;42.664;23.242;2023-12-28T11:47:16;4.05;;;2.05;;
61127;SDS011;47013;42.664;23.242;2023-12-28T11:49:46;3.35;;;2.08;;
61127;SDS011;47013;42.664;23.242;2023-12-28T11:52:26;2.20;;;1.50;;
61127;SDS011;47013;42.664;23.242;2023-12-28T11:54:53;2.65;;;1.80;;
61127;SDS011;47013;42.664;23.242;2023-12-28T11:57:19;1.75;;;1.40;;
61127;SDS011;47013;42.664;23.242;2023-12-28T11:59:44;3.95;;;2.08;;
61127;SDS011;47013;42.664;23.242;2023-12-28T12:02:10;3.17;;;2.00;;
61127;SDS011;47013;42.664;23.242;2023-12-28T12:04:36;4.68;;;2.33;;
61127;SDS011;47013;42.664;23.242;2023-12-28T12:07:02;3.22;;;1.80;;
61127;SDS011;47013;42.664;23.242;2023-12-28T12:09:28;2.55;;;1.55;;
61127;SDS011;47013;42.664;23.242;2023-12-28T12:11:57;4.28;;;2.22;;
61127;SDS011;47013;42.664;23.242;2023-12-28T12:14:23;2.45;;;1.50;;
61127;SDS011;47013;42.664;23.242;2023-12-28T12:16:48;4.53;;;2.03;;
61127;SDS011;47013;42.664;23.242;2023-12-28T12:19:14;4.03;;;2.03;;
61127;SDS011;47013;42.664;23.242;2023-12-28T12:21:40;2.33;;;1.60;;
61127;SDS011;47013;42.664;23.242;2023-12-28T12:24:06;3.13;;;1.95;;
61127;SDS011;47013;42.664;23.242;2023-12-28T12:26:32;3.53;;;1.88;;
61127;SDS011;47013;42.664;23.242;2023-12-28T12:28:57;3.72;;;1.65;;
61127;SDS011;47013;42.664;23.242;2023-12-28T12:31:23;2.60;;;1.58;;
61127;SDS011;47013;42.664;23.242;2023-12-28T12:33:51;2.45;;;1.15;;
61127;SDS011;47013;42.664;23.242;2023-12-28T12:36:17;0.95;;;0.88;;
61127;SDS011;47013;42.664;23.242;2023-12-28T12:38:42;3.40;;;1.38;;
61127;SDS011;47013;42.664;23.242;2023-12-28T12:41:09;3.08;;;1.42;;
61127;SDS011;47013;42.664;23.242;2023-12-28T12:43:35;0.68;;;0.63;;
61127;SDS011;47013;42.664;23.242;2023-12-28T12:46:01;1.20;;;1.08;;
61127;SDS011;47013;42.664;23.242;2023-12-28T12:48:26;1.40;;;1.08;;
61127;SDS011;47013;42.664;23.242;2023-12-28T12:50:52;1.48;;;1.25;;
61127;SDS011;47013;42.664;23.242;2023-12-28T12:53:17;1.27;;;1.10;;
61127;SDS011;47013;42.664;23.242;2023-12-28T12:55:43;0.52;;;0.52;;
61127;SDS011;47013;42.664;23.242;2023-12-28T12:58:10;0.38;;;0.38;;
61127;SDS011;47013;42.664;23.242;2023-12-28T13:00:38;1.45;;;1.17;;
61127;SDS011;47013;42.664;23.242;2023-12-28T13:03:07;1.08;;;0.65;;
61127;SDS011;47013;42.664;23.242;2023-12-28T13:05:34;1.73;;;1.10;;
61127;SDS011;47013;42.664;23.242;2023-12-28T13:08:00;0.40;;;0.40;;
61127;SDS011;47013;42.664;23.242;2023-12-28T13:10:26;1.27;;;0.93;;
61127;SDS011;47013;42.664;23.242;2023-12-28T13:12:51;1.65;;;1.17;;
61127;SDS011;47013;42.664;23.242;2023-12-28T13:15:19;0.30;;;0.30;;
61127;SDS011;47013;42.664;23.242;2023-12-28T13:17:45;0.60;;;0.60;;
61127;SDS011;47013;42.664;23.242;2023-12-28T13:20:10;0.75;;;0.47;;
61127;SDS011;47013;42.664;23.242;2023-12-28T13:22:36;1.55;;;1.17;;
61127;SDS011;47013;42.664;23.242;2023-12-28T13:25:01;1.30;;;0.95;;
61127;SDS011;47013;42.664;23.242;2023-12-28T13:27:28;0.73;;;0.60;;
61127;SDS011;47013;42.664;23.242;2023-12-28T13:29:54;0.45;;;0.45;;
61127;SDS011;47013;42.664;23.242;2023-12-28T13:32:19;1.73;;;0.90;;
61127;SDS011;47013;42.664;23.242;2023-12-28T13:34:46;1.25;;;0.77;;
61127;SDS011;47013;42.664;23.242;2023-12-28T13:37:11;0.30;;;0.30;;
61127;SDS011;47013;42.664;23.242;2023-12-28T13:39:37;2.20;;;1.48;;
61127;SDS011;47013;42.664;23.242;2023-12-28T13:42:06;1.65;;;1.13;;
61127;SDS011;47013;42.664;23.242;2023-12-28T13:44:34;2.03;;;0.88;;
61127;SDS011;47013;42.664;23.242;2023-12-28T13:47:03;0.68;;;0.68;;
61127;SDS011;47013;42.664;23.242;2023-12-28T13:49:33;1.58;;;0.85;;
61127;SDS011;47013;42.664;23.242;2023-12-28T13:51:59;0.73;;;0.60;;
61127;SDS011;47013;42.664;23.242;2023-12-28T13:54:24;0.57;;;0.50;;
61127;SDS011;47013;42.664;23.242;2023-12-28T13:59:23;2.20;;;1.35;;
61127;SDS011;47013;42.664;23.242;2023-12-28T14:01:49;1.20;;;1.02;;
61127;SDS011;47013;42.664;23.242;2023-12-28T14:04:15;1.48;;;1.23;;
61127;SDS011;47013;42.664;23.242;2023-12-28T14:06:40;1.90;;;1.30;;
61127;SDS011;47013;42.664;23.242;2023-12-28T14:09:05;0.55;;;0.55;;
61127;SDS011;47013;42.664;23.242;2023-12-28T14:11:33;0.50;;;0.50;;
61127;SDS011;47013;42.664;23.242;2023-12-28T14:13:59;0.70;;;0.70;;
61127;SDS011;47013;42.664;23.242;2023-12-28T14:16:24;1.63;;;1.00;;
61127;SDS011;47013;42.664;23.242;2023-12-28T14:18:50;0.95;;;0.82;;
61127;SDS011;47013;42.664;23.242;2023-12-28T14:21:17;0.43;;;0.43;;
61127;SDS011;47013;42.664;23.242;2023-12-28T14:23:43;1.45;;;0.88;;
61127;SDS011;47013;42.664;23.242;2023-12-28T14:26:11;1.60;;;1.10;;
61127;SDS011;47013;42.664;23.242;2023-12-28T14:28:43;0.40;;;0.40;;
61127;SDS011;47013;42.664;23.242;2023-12-28T14:33:35;0.82;;;0.52;;
61127;SDS011;47013;42.664;23.242;2023-12-28T14:36:01;1.17;;;0.65;;
61127;SDS011;47013;42.664;23.242;2023-12-28T14:38:27;0.75;;;0.70;;
61127;SDS011;47013;42.664;23.242;2023-12-28T14:40:53;1.75;;;0.98;;
61127;SDS011;47013;42.664;23.242;2023-12-28T14:43:19;0.40;;;0.40;;
61127;SDS011;47013;42.664;23.242;2023-12-28T14:45:44;0.50;;;0.50;;
61127;SDS011;47013;42.664;23.242;2023-12-28T14:48:11;0.40;;;0.40;;